Meteo Giornale » Osservazioni meteo Stati Uniti (USA) » Meeker
ore: 16:53 - Osservazioni Meteo Meeker
Lat. 40° 2' N Lon. 107° 53' W Alt. 1948 metri s.l.m.
22 °C
Sereno
Temp. 24 Ore
12 °C
23 °C
Nord
5.5 Km/h
Dew point 9 °C
Umidità 43 %
Visibilità 10 Km
Il sole sorge alle ore 06:39
Il sole tramonta alle ore 19:43
| Data e Ora | Cielo e Fenomeni | T °C | DP °C | Um. % | Pres. hPa | Vis. km | Vento km/h | |
|---|---|---|---|---|---|---|---|---|
| Oggi h: 16:53 | Sereno | 22 | 9 | 43 | 1022 | 10 | N 5.5 | |
| Oggi h: 15:53 | Molto Nuvoloso | 22 | 10 | 46 | 1022 | 10 | O/NO 22.2 | |
| Oggi h: 14:53 | Nuvoloso | 23 | 10 | 43 | 1022 | 10 | O 14.8 | |
| Oggi h: 13:53 | Molto Nuvoloso | 21 | 12 | 56 | 1023 | 10 | O/SO 7.4 | |
| Oggi h: 12:53 | Coperto | 18 | 11 | 63 | 1024 | 10 | N/NO 14.8 | |
| Oggi h: 12:10 | Coperto | 21 | 9 | 46 | 1024 | 10 | SO 20.3 | |
| Oggi h: 11:53 | Temporale nelle vicinanze | 21 | 10 | 49 | 1024 | 10 | S/SO 20.3 | |
| Oggi h: 10:53 | Coperto | 21 | 10 | 49 | 1024 | 10 | S/SO 22.2 | |
| Oggi h: 09:53 | Sereno | 18 | 11 | 63 | 1024 | 10 | N 0 | |
| Oggi h: 08:53 | Coperto | 14 | 11 | 82 | 1025 | 10 | N 0 | |
| Oggi h: 07:53 | Coperto | 13 | 11 | 87 | 1025 | 10 | N 0 | |
| Oggi h: 06:53 | Molto Nuvoloso | 12 | 11 | 93 | 1024 | 10 | N 0 | |
| Oggi h: 05:53 | Nuvoloso | 13 | 11 | 87 | 1023 | 10 | N 5.5 | |
| Oggi h: 04:53 | Molto Nuvoloso | 12 | 11 | 93 | 1023 | 10 | E/NE 7.4 | |
| Oggi h: 03:53 | Coperto | 12 | 11 | 93 | 1023 | 10 | N 0 | |
| Oggi h: 02:53 | Molto Nuvoloso | 12 | 12 | 100 | 1023 | 10 | N/NE 7.4 | |
| Oggi h: 01:53 | Coperto | 13 | 12 | 93 | 1024 | 10 | N 0 | |
| Oggi h: 00:53 | Nuvoloso | 14 | 13 | 93 | 1024 | 10 | N 0 | |
| Ieri h: 23:53 | Coperto | 14 | 14 | 100 | 1024 | 10 | N 0 | |
| Ieri h: 22:53 | Coperto | 15 | 14 | 93 | 1024 | 10 | N 0 | |
| Ieri h: 21:53 | Coperto | 15 | 13 | 87 | 1024 | 10 | N 5.5 | |
| Ieri h: 20:53 | Pioggia | 15 | 13 | 87 | 1024 | 10 | NE 9.3 | |
| Ieri h: 19:53 | Pioggia | 17 | 12 | 72 | 1024 | 10 | SO 7.4 | |
| Ieri h: 18:53 | Coperto | 17 | 13 | 77 | 1024 | 10 | N 0 | |
| Ieri h: 18:18 | Molto Nuvoloso | 17 | 13 | 77 | 1023 | 10 | N 5.5 | |
| Ieri h: 18:09 | Temporale nelle vicinanze | 17 | 13 | 77 | 1023 | 10 | N 0 | |
| Ieri h: 17:53 | Temporale | 17 | 13 | 77 | 1023 | 10 | N/NO 7.4 | |
| Ieri h: 17:46 | Pioggia | 16 | 13 | 82 | 1023 | 10 | N/NO 9.3 | |
| Ieri h: 17:31 | Temporale nelle vicinanze Pioggia | 18 | 12 | 67 | 1023 | 10 | E 9.3 | |



